createdAt,value
2023-02-01T00:00:28.904Z,102131.22
2023-02-01T00:02:55.513Z,102115.50
2023-02-01T00:05:21.976Z,102104.72
2023-02-01T00:07:50.130Z,102116.78
2023-02-01T00:10:17.216Z,102109.44
2023-02-01T00:12:43.717Z,102106.75
2023-02-01T00:15:10.797Z,102114.22
2023-02-01T00:17:37.335Z,102116.94
2023-02-01T00:20:04.213Z,102114.34
2023-02-01T00:22:30.715Z,102109.97
2023-02-01T00:24:57.186Z,102096.78
2023-02-01T00:27:23.767Z,102099.03
2023-02-01T00:29:50.246Z,102097.91
2023-02-01T00:32:16.791Z,102086.97
2023-02-01T00:34:43.411Z,102105.00
2023-02-01T00:37:10.009Z,102098.63
2023-02-01T00:39:36.531Z,102092.13
2023-02-01T00:42:03.243Z,102093.66
2023-02-01T00:44:34.114Z,102095.19
2023-02-01T00:47:01.478Z,102103.63
2023-02-01T00:49:29.409Z,102099.22
2023-02-01T00:51:56.041Z,102101.47
2023-02-01T00:54:22.911Z,102100.44
2023-02-01T00:56:49.648Z,102097.22
2023-02-01T00:59:16.236Z,102091.19
2023-02-01T01:01:42.761Z,102098.91
2023-02-01T01:04:09.394Z,102108.38
2023-02-01T01:06:36.057Z,102103.75
2023-02-01T01:09:05.625Z,102094.63
2023-02-01T01:11:35.149Z,102091.91
2023-02-01T01:14:02.270Z,102092.72
2023-02-01T01:16:31.141Z,102077.91
2023-02-01T01:18:58.520Z,102081.47
2023-02-01T01:21:28.754Z,102072.44
2023-02-01T01:23:56.329Z,102085.34
2023-02-01T01:26:26.015Z,102086.19
2023-02-01T01:28:53.244Z,102080.28
2023-02-01T01:31:21.345Z,102085.00
2023-02-01T01:33:53.274Z,102070.78
2023-02-01T01:36:20.261Z,102078.34
2023-02-01T01:38:47.537Z,102061.84
2023-02-01T01:41:17.852Z,102075.72
2023-02-01T01:43:50.645Z,102065.41
2023-02-01T01:46:19.319Z,102066.38
2023-02-01T01:48:49.029Z,102081.44
2023-02-01T01:51:20.608Z,102079.53
2023-02-01T01:53:59.483Z,102069.66
2023-02-01T01:56:28.393Z,102070.97
2023-02-01T01:58:55.856Z,102061.94
2023-02-01T02:01:22.409Z,102054.94
2023-02-01T02:03:49.411Z,102051.84
2023-02-01T02:06:39.877Z,102059.53
2023-02-01T02:09:07.183Z,102048.84
2023-02-01T02:11:34.677Z,102050.75
2023-02-01T02:14:01.871Z,102043.63
2023-02-01T02:17:08.729Z,102031.28
2023-02-01T02:20:02.632Z,102036.38
2023-02-01T02:22:41.398Z,102041.13
2023-02-01T02:25:22.386Z,102037.28
2023-02-01T02:27:58.197Z,102020.50
2023-02-01T02:30:53.986Z,102031.44
2023-02-01T02:33:53.750Z,102030.38
2023-02-01T02:36:31.435Z,102023.22
2023-02-01T02:39:43.411Z,102024.53
2023-02-01T02:42:53.477Z,102010.34
2023-02-01T02:45:49.521Z,102017.13
2023-02-01T02:48:26.343Z,102016.03
2023-02-01T02:51:34.427Z,102001.03
2023-02-01T02:54:32.575Z,102003.91
2023-02-01T02:57:21.562Z,101998.81
2023-02-01T03:00:07.939Z,101983.72
2023-02-01T03:02:54.006Z,101986.47
2023-02-01T03:05:21.798Z,101990.16
2023-02-01T03:08:05.238Z,101981.72
2023-02-01T03:10:50.464Z,101984.75
2023-02-01T03:13:46.647Z,101977.63
2023-02-01T03:16:18.841Z,101988.47
2023-02-01T03:18:57.476Z,101981.31
2023-02-01T03:21:46.784Z,101981.97
2023-02-01T03:24:22.287Z,101972.03
2023-02-01T03:26:55.681Z,101976.66
2023-02-01T03:29:33.320Z,101979.16
2023-02-01T03:31:59.998Z,101972.97
2023-02-01T03:34:26.801Z,101956.59
2023-02-01T03:37:00.717Z,101975.00
2023-02-01T03:39:35.904Z,101987.22
2023-02-01T03:42:12.037Z,101995.34
2023-02-01T03:45:03.050Z,102003.16
2023-02-01T03:47:34.603Z,102002.22
2023-02-01T03:50:11.882Z,101987.75
2023-02-01T03:52:45.371Z,101986.06
2023-02-01T03:55:13.959Z,101998.88
2023-02-01T03:57:52.738Z,102001.72
2023-02-01T04:00:24.956Z,101994.84
2023-02-01T04:02:52.614Z,101997.47
2023-02-01T04:05:19.290Z,101999.00
2023-02-01T04:07:45.832Z,101987.13
2023-02-01T04:10:13.077Z,101991.56
2023-02-01T04:12:41.255Z,101983.34
2023-02-01T04:15:08.599Z,101981.31
2023-02-01T04:17:35.165Z,101982.03
2023-02-01T04:20:01.879Z,101998.06
2023-02-01T04:22:29.712Z,101990.78
2023-02-01T04:24:56.711Z,102005.38
2023-02-01T04:29:52.831Z,102008.50
2023-02-01T04:32:20.933Z,102000.53
2023-02-01T04:34:47.542Z,101997.53
2023-02-01T04:37:14.405Z,101990.41
2023-02-01T04:39:42.337Z,101977.34
2023-02-01T04:42:09.617Z,101988.28
2023-02-01T04:44:37.917Z,101994.72
2023-02-01T04:47:04.406Z,101982.88
2023-02-01T04:49:31.375Z,101981.06
2023-02-01T04:51:58.125Z,101996.31
2023-02-01T04:54:24.704Z,101976.94
2023-02-01T04:56:51.258Z,101985.97
2023-02-01T04:59:17.895Z,101974.69
2023-02-01T05:01:44.649Z,101978.50
2023-02-01T05:04:11.211Z,101992.16
2023-02-01T05:06:38.777Z,101972.81
2023-02-01T05:09:05.261Z,101973.47
2023-02-01T05:11:50.187Z,101978.59
2023-02-01T05:14:16.755Z,101982.03
2023-02-01T05:16:43.504Z,101980.63
2023-02-01T05:19:10.155Z,101976.38
2023-02-01T05:21:36.814Z,101990.25
2023-02-01T05:24:20.652Z,101975.66
2023-02-01T05:26:48.339Z,101969.38
2023-02-01T05:29:16.962Z,101980.50
2023-02-01T05:31:45.348Z,101986.31
2023-02-01T05:34:12.335Z,101995.81
2023-02-01T05:36:39.015Z,101988.41
2023-02-01T05:39:05.779Z,101977.84
2023-02-01T05:41:32.305Z,101986.13
2023-02-01T05:43:58.841Z,101996.69
2023-02-01T05:46:25.363Z,101998.38
2023-02-01T05:48:51.851Z,101985.31
2023-02-01T05:51:18.508Z,101993.16
2023-02-01T05:53:45.024Z,101997.53
2023-02-01T05:56:11.555Z,101993.59
2023-02-01T05:58:38.044Z,102005.44
2023-02-01T06:01:04.880Z,102000.22
2023-02-01T06:03:31.519Z,101996.63
2023-02-01T06:05:58.073Z,102003.66
2023-02-01T06:08:27.463Z,102000.22
2023-02-01T06:11:04.972Z,102000.22
2023-02-01T06:13:34.380Z,101997.75
2023-02-01T06:16:02.087Z,101993.34
2023-02-01T06:18:28.771Z,101991.69
2023-02-01T06:21:01.110Z,101995.13
2023-02-01T06:23:28.640Z,101997.75
2023-02-01T06:26:10.790Z,101992.53
2023-02-01T06:28:37.314Z,102004.75
2023-02-01T06:31:08.364Z,102003.22
2023-02-01T06:33:35.943Z,101998.97
2023-02-01T06:36:04.873Z,102028.06
2023-02-01T06:38:32.226Z,102018.13
2023-02-01T06:40:59.765Z,102015.19
2023-02-01T06:43:27.424Z,102017.22
2023-02-01T06:45:54.519Z,102029.47
2023-02-01T06:48:21.364Z,102016.50
2023-02-01T06:50:47.796Z,102024.34
2023-02-01T06:53:14.238Z,102017.59
2023-02-01T06:55:40.854Z,102019.63
2023-02-01T06:58:07.329Z,102018.22
2023-02-01T07:00:33.915Z,102025.34
2023-02-01T07:03:01.068Z,102016.78
2023-02-01T07:05:27.586Z,102019.66
2023-02-01T07:07:53.997Z,102008.25
2023-02-01T07:10:20.743Z,102008.13
2023-02-01T07:12:47.433Z,102015.13
2023-02-01T07:15:14.226Z,102021.91
2023-02-01T07:17:40.713Z,101998.97
2023-02-01T07:20:08.017Z,102013.59
2023-02-01T07:22:34.574Z,102012.38
2023-02-01T07:25:01.155Z,102016.63
2023-02-01T07:27:27.854Z,102018.66
2023-02-01T07:29:56.517Z,102018.09
2023-02-01T07:32:23.125Z,102012.72
2023-02-01T07:34:49.718Z,102023.44
2023-02-01T07:37:16.427Z,102014.75
2023-02-01T07:39:42.962Z,102021.41
2023-02-01T07:42:09.544Z,102020.06
2023-02-01T07:44:36.118Z,102009.88
2023-02-01T07:47:02.735Z,102009.88
2023-02-01T07:49:29.260Z,102013.59
2023-02-01T07:51:55.918Z,102006.44
2023-02-01T07:54:22.453Z,102005.03
2023-02-01T07:56:49.002Z,102017.38
2023-02-01T07:59:16.154Z,102014.50
2023-02-01T08:01:43.267Z,102028.97
2023-02-01T08:04:12.886Z,102021.88
2023-02-01T08:06:40.358Z,102027.78
2023-02-01T08:09:09.090Z,102039.78
2023-02-01T08:11:37.587Z,102035.38
2023-02-01T08:14:04.277Z,102037.88
2023-02-01T08:16:30.900Z,102040.25
2023-02-01T08:18:57.704Z,102019.06
2023-02-01T08:21:37.505Z,102022.41
2023-02-01T08:24:06.079Z,102016.09
2023-02-01T08:26:33.452Z,102021.63
2023-02-01T08:29:02.796Z,102024.47
2023-02-01T08:31:30.762Z,102014.19
2023-02-01T08:34:00.683Z,102011.31
2023-02-01T08:36:29.902Z,102011.91
2023-02-01T08:38:58.759Z,102025.66
2023-02-01T08:41:29.116Z,102007.34
2023-02-01T08:43:56.327Z,102009.16
2023-02-01T08:46:23.442Z,102005.31
2023-02-01T08:48:50.155Z,102016.53
2023-02-01T08:51:19.057Z,102018.31
2023-02-01T08:53:45.586Z,102002.47
2023-02-01T08:56:14.609Z,102016.00
2023-02-01T08:58:41.599Z,102015.47
2023-02-01T09:01:14.897Z,102016.19
2023-02-01T09:03:42.003Z,102014.16
2023-02-01T09:06:12.124Z,102006.88
2023-02-01T09:08:39.736Z,102004.53
2023-02-01T09:11:08.947Z,102003.06
2023-02-01T09:13:36.416Z,102015.81
2023-02-01T09:16:04.355Z,101997.00
2023-02-01T09:18:31.073Z,101998.53
2023-02-01T09:20:58.264Z,102002.13
2023-02-01T09:23:25.502Z,101998.03
2023-02-01T09:25:52.685Z,101984.50
2023-02-01T09:28:20.021Z,102007.41
2023-02-01T09:30:46.751Z,102000.22
2023-02-01T09:33:13.525Z,101979.97
2023-02-01T09:35:40.032Z,102006.31
2023-02-01T09:38:06.582Z,101996.09
2023-02-01T09:40:36.360Z,102005.75
2023-02-01T09:43:33.006Z,102018.16
2023-02-01T09:46:22.358Z,102010.44
2023-02-01T09:48:53.650Z,101999.09
2023-02-01T09:51:26.496Z,101999.66
2023-02-01T09:54:13.997Z,102012.75
2023-02-01T09:56:47.213Z,102005.22
2023-02-01T09:59:16.631Z,102006.28
2023-02-01T10:01:43.905Z,101983.13
2023-02-01T10:04:14.491Z,101979.81
2023-02-01T10:07:07.518Z,102012.19
2023-02-01T10:09:52.241Z,101991.00
2023-02-01T10:12:31.222Z,101985.59
2023-02-01T10:15:00.691Z,101981.47
2023-02-01T10:18:00.751Z,101984.22
2023-02-01T10:20:58.333Z,101997.00
2023-02-01T10:23:43.516Z,101987.63
2023-02-01T10:26:23.717Z,101996.16
2023-02-01T10:28:57.803Z,102014.47
2023-02-01T10:31:28.629Z,102005.22
2023-02-01T10:34:01.661Z,101997.75
2023-02-01T10:36:30.324Z,101994.28
2023-02-01T10:38:59.670Z,101974.06
2023-02-01T10:41:34.184Z,101977.38
2023-02-01T10:44:04.344Z,102001.78
2023-02-01T10:46:31.985Z,101991.00
2023-02-01T10:49:03.323Z,101983.88
2023-02-01T10:51:53.554Z,101991.06
2023-02-01T10:54:34.447Z,101976.88
2023-02-01T10:57:01.582Z,101976.34
2023-02-01T10:59:31.435Z,101966.72
2023-02-01T11:02:06.798Z,101974.59
2023-02-01T11:04:39.132Z,101971.72
2023-02-01T11:07:26.704Z,101964.84
2023-02-01T11:09:56.218Z,101967.47
2023-02-01T11:12:39.339Z,101956.44
2023-02-01T11:15:24.240Z,101953.81
2023-02-01T11:17:52.904Z,101960.53
2023-02-01T11:20:25.067Z,101985.91
2023-02-01T11:22:57.434Z,101951.31
2023-02-01T11:25:25.809Z,101956.56
2023-02-01T11:27:55.870Z,101968.56
2023-02-01T11:30:39.922Z,101909.41
2023-02-01T11:33:10.171Z,101973.50
2023-02-01T11:35:40.961Z,101963.75
2023-02-01T11:38:31.233Z,101970.09
2023-02-01T11:41:24.468Z,101960.28
2023-02-01T11:43:59.965Z,101960.94
2023-02-01T11:46:35.217Z,101957.09
2023-02-01T11:49:27.813Z,101943.56
2023-02-01T11:52:13.094Z,101949.47
2023-02-01T11:54:46.837Z,101950.72
2023-02-01T11:57:29.243Z,101943.69
2023-02-01T12:00:13.924Z,101940.53
2023-02-01T12:03:02.108Z,101934.19
2023-02-01T12:05:47.484Z,101937.31
2023-02-01T12:08:39.935Z,101932.91
2023-02-01T12:11:19.532Z,101933.03
2023-02-01T12:14:02.371Z,101952.47
2023-02-01T12:16:31.708Z,101949.41
2023-02-01T12:19:04.217Z,101939.47
2023-02-01T12:21:38.936Z,101939.47
2023-02-01T12:24:17.671Z,101935.19
2023-02-01T12:27:13.427Z,101915.31
2023-02-01T12:29:42.662Z,101928.44
2023-02-01T12:32:48.116Z,101920.19
2023-02-01T12:35:14.670Z,101941.03
2023-02-01T12:38:05.128Z,101939.81
2023-02-01T12:40:56.222Z,101943.09
2023-02-01T12:43:34.948Z,101937.03
2023-02-01T12:46:17.261Z,101938.72
2023-02-01T12:49:11.309Z,101929.31
2023-02-01T12:51:40.908Z,101926.97
2023-02-01T12:54:24.007Z,101926.59
2023-02-01T12:57:06.437Z,101927.69
2023-02-01T12:59:48.650Z,101924.09
2023-02-01T13:02:54.622Z,101921.47
2023-02-01T13:05:25.557Z,101927.41
2023-02-01T13:08:03.699Z,101926.16
2023-02-01T13:10:35.907Z,101941.88
2023-02-01T13:13:12.739Z,101949.75
2023-02-01T13:15:44.972Z,101938.44
2023-02-01T13:18:18.122Z,101928.22
2023-02-01T13:21:06.814Z,101936.53
2023-02-01T13:23:39.173Z,101930.75
2023-02-01T13:26:05.863Z,101923.81
2023-02-01T13:28:52.933Z,101940.53
2023-02-01T13:31:26.833Z,101947.41
2023-02-01T13:34:26.851Z,101948.13
2023-02-01T13:37:15.520Z,101942.88
2023-02-01T13:39:57.327Z,101941.78
2023-02-01T13:42:27.883Z,101939.97
2023-02-01T13:45:02.020Z,101937.91
2023-02-01T13:47:34.000Z,101955.00
2023-02-01T13:50:13.254Z,101930.16
2023-02-01T13:52:43.696Z,101949.03
2023-02-01T13:55:23.248Z,101937.31
2023-02-01T13:57:53.102Z,101929.84
2023-02-01T14:00:37.211Z,101937.94
2023-02-01T14:03:09.246Z,101941.94
2023-02-01T14:05:35.689Z,101940.16
2023-02-01T14:08:11.098Z,101928.81
2023-02-01T14:10:52.591Z,101938.66
2023-02-01T14:13:42.600Z,101944.88
2023-02-01T14:16:17.425Z,101946.38
2023-02-01T14:18:46.551Z,101946.63
2023-02-01T14:21:23.058Z,101947.06
2023-02-01T14:23:58.417Z,101945.72
2023-02-01T14:26:28.321Z,101940.75
2023-02-01T14:29:00.209Z,101940.91
2023-02-01T14:31:44.787Z,101942.00
2023-02-01T14:34:25.916Z,101930.69
2023-02-01T14:37:04.895Z,101940.19
2023-02-01T14:39:38.419Z,101936.75
2023-02-01T14:42:17.102Z,101944.63
2023-02-01T14:44:59.282Z,101949.88
2023-02-01T14:47:31.876Z,101935.94
2023-02-01T14:50:08.365Z,101947.41
2023-02-01T14:52:43.254Z,101938.72
2023-02-01T14:55:19.648Z,101930.97
2023-02-01T14:57:50.647Z,101931.25
2023-02-01T15:00:30.157Z,101923.16
2023-02-01T15:03:13.934Z,101935.00
2023-02-01T15:05:40.609Z,101937.09
2023-02-01T15:08:20.321Z,101943.31
2023-02-01T15:10:49.976Z,101929.50
2023-02-01T15:13:24.705Z,101961.94
2023-02-01T15:16:21.632Z,101953.78
2023-02-01T15:18:48.243Z,101959.69
2023-02-01T15:21:27.467Z,101952.66
2023-02-01T15:24:11.934Z,101969.09
2023-02-01T15:26:38.798Z,101946.19
2023-02-01T15:29:05.325Z,101974.19
2023-02-01T15:31:45.631Z,101976.81
2023-02-01T15:34:13.330Z,101986.34
2023-02-01T15:36:43.831Z,101979.97
2023-02-01T15:39:23.911Z,101991.16
2023-02-01T15:41:54.478Z,101989.38
2023-02-01T15:44:42.623Z,101991.97
2023-02-01T15:47:21.204Z,101997.09
2023-02-01T15:49:53.257Z,101995.31
2023-02-01T15:52:33.741Z,101990.06
2023-02-01T15:55:04.207Z,101988.38
2023-02-01T15:57:35.089Z,101982.59
2023-02-01T16:00:08.888Z,101970.34
2023-02-01T16:02:39.986Z,101997.38
2023-02-01T16:05:30.110Z,101994.59
2023-02-01T16:08:04.882Z,102008.69
2023-02-01T16:10:32.751Z,102002.34
2023-02-01T16:13:01.257Z,101999.59
2023-02-01T16:15:30.511Z,101996.25
2023-02-01T16:17:57.448Z,101999.03
2023-02-01T16:20:24.094Z,102002.47
2023-02-01T16:22:50.847Z,102024.28
2023-02-01T16:25:17.376Z,101993.94
2023-02-01T16:27:43.924Z,102002.75
2023-02-01T16:30:11.048Z,102006.19
2023-02-01T16:32:41.999Z,101991.16
2023-02-01T16:35:22.397Z,101984.41
2023-02-01T16:37:49.055Z,101990.47
2023-02-01T16:40:17.797Z,101995.72
2023-02-01T16:42:46.608Z,101993.94
2023-02-01T16:45:13.197Z,102000.94
2023-02-01T16:47:43.673Z,102009.66
2023-02-01T16:50:25.287Z,102018.38
2023-02-01T16:52:53.997Z,102016.84
2023-02-01T16:55:25.481Z,102025.53
2023-02-01T16:57:52.288Z,102030.91
2023-02-01T17:00:25.490Z,102048.31
2023-02-01T17:02:53.878Z,102049.00
2023-02-01T17:05:20.653Z,102057.53
2023-02-01T17:07:47.378Z,102045.25
2023-02-01T17:10:33.968Z,102057.44
2023-02-01T17:13:01.593Z,102055.63
2023-02-01T17:15:32.584Z,102054.81
2023-02-01T17:18:02.832Z,102067.06
2023-02-01T17:20:32.996Z,102067.91
2023-02-01T17:23:00.665Z,102073.44
2023-02-01T17:25:29.997Z,102061.41
2023-02-01T17:27:56.787Z,102075.50
2023-02-01T17:30:23.396Z,102072.16
2023-02-01T17:32:50.026Z,102075.50
2023-02-01T17:35:22.523Z,102080.03
2023-02-01T17:37:50.758Z,102084.03
2023-02-01T17:40:17.849Z,102078.13
2023-02-01T17:42:44.911Z,102062.50
2023-02-01T17:45:32.634Z,102083.63
2023-02-01T17:47:59.246Z,102072.16
2023-02-01T17:50:28.423Z,102065.84
2023-02-01T17:52:54.981Z,102065.56
2023-02-01T17:55:25.011Z,102064.03
2023-02-01T17:57:51.841Z,102068.19
2023-02-01T18:00:19.183Z,102057.44
2023-02-01T18:02:46.156Z,102067.06
2023-02-01T18:05:39.014Z,102056.44
2023-02-01T18:08:05.862Z,102051.19
2023-02-01T18:10:32.407Z,102062.22
2023-02-01T18:12:59.061Z,102094.78
2023-02-01T18:15:27.662Z,102099.22
2023-02-01T18:17:54.176Z,102093.53
2023-02-01T18:20:22.961Z,102094.75
2023-02-01T18:22:50.302Z,102088.16
2023-02-01T18:25:20.827Z,102096.03
2023-02-01T18:27:48.997Z,102094.91
2023-02-01T18:30:16.846Z,102119.34
2023-02-01T18:32:45.137Z,102084.59
2023-02-01T18:35:26.685Z,102095.88
2023-02-01T18:37:56.170Z,102114.41
2023-02-01T18:40:26.071Z,102088.66
2023-02-01T18:42:52.626Z,102073.16
2023-02-01T18:45:24.606Z,102083.13
2023-02-01T18:47:51.788Z,102091.41
2023-02-01T18:50:18.741Z,102091.41
2023-02-01T18:52:45.319Z,102100.09
2023-02-01T18:55:12.606Z,102095.56
2023-02-01T18:57:40.013Z,102096.41
2023-02-01T19:00:10.348Z,102097.94
2023-02-01T19:02:39.026Z,102129.44
2023-02-01T19:05:10.447Z,102111.25
2023-02-01T19:07:37.865Z,102110.44
2023-02-01T19:10:06.481Z,102110.28
2023-02-01T19:12:34.237Z,102110.16
2023-02-01T19:15:01.112Z,102112.53
2023-02-01T19:17:30.843Z,102103.75
2023-02-01T19:20:01.307Z,102095.81
2023-02-01T19:22:27.965Z,102092.22
2023-02-01T19:24:55.157Z,102091.97
2023-02-01T19:27:22.000Z,102087.19
2023-02-01T19:29:48.794Z,102087.81
2023-02-01T19:32:15.528Z,102087.38
2023-02-01T19:34:42.309Z,102080.81
2023-02-01T19:37:09.623Z,102078.97
2023-02-01T19:39:37.839Z,102078.88
2023-02-01T19:42:05.594Z,102083.97
2023-02-01T19:44:32.888Z,102078.09
2023-02-01T19:46:59.419Z,102082.09
2023-02-01T19:49:26.310Z,102089.94
2023-02-01T19:51:53.194Z,102077.41
2023-02-01T19:54:20.803Z,102103.34
2023-02-01T19:56:51.193Z,102084.03
2023-02-01T19:59:19.089Z,102078.94
2023-02-01T20:01:46.726Z,102086.66
2023-02-01T20:04:15.103Z,102078.81
2023-02-01T20:06:49.088Z,102085.16
2023-02-01T20:09:21.206Z,102089.44
2023-02-01T20:11:48.653Z,102094.66
2023-02-01T20:14:15.907Z,102088.59
2023-02-01T20:16:43.202Z,102110.25
2023-02-01T20:19:10.901Z,102086.41
2023-02-01T20:21:38.968Z,102133.81
2023-02-01T20:24:06.299Z,102105.56
2023-02-01T20:26:34.515Z,102114.94
2023-02-01T20:29:02.166Z,102127.09
2023-02-01T20:31:30.010Z,102122.41
2023-02-01T20:33:58.162Z,102126.56
2023-02-01T20:36:29.097Z,102128.34
2023-02-01T20:38:57.087Z,102132.88
2023-02-01T20:41:24.531Z,102137.31
2023-02-01T20:43:51.414Z,102142.53
2023-02-01T20:46:18.308Z,102151.22
2023-02-01T20:48:48.439Z,102146.81
2023-02-01T20:51:17.722Z,102146.56
2023-02-01T20:53:45.114Z,102153.47
2023-02-01T20:56:12.865Z,102158.16
2023-02-01T20:58:40.083Z,102154.59
2023-02-01T21:01:07.634Z,102155.03
2023-02-01T21:03:35.672Z,102158.63
2023-02-01T21:06:03.986Z,102161.34
2023-02-01T21:08:31.669Z,102172.66
2023-02-01T21:11:05.705Z,102161.09
2023-02-01T21:13:36.343Z,102164.41
2023-02-01T21:16:03.929Z,102158.72
2023-02-01T21:18:32.037Z,102178.72
2023-02-01T21:21:14.373Z,102166.47
2023-02-01T21:23:48.601Z,102160.00
2023-02-01T21:26:18.473Z,102174.19
2023-02-01T21:28:45.563Z,102170.75
2023-02-01T21:31:13.916Z,102177.53
2023-02-01T21:33:40.691Z,102175.72
2023-02-01T21:36:07.650Z,102173.78
2023-02-01T21:38:34.587Z,102178.09
2023-02-01T21:41:20.321Z,102176.28
2023-02-01T21:43:47.043Z,102184.16
2023-02-01T21:46:13.566Z,102190.47
2023-02-01T21:49:03.811Z,102193.91
2023-02-01T21:51:28.954Z,102197.38
2023-02-01T21:53:56.421Z,102201.22
2023-02-01T21:56:26.656Z,102194.19
2023-02-01T21:58:53.518Z,102199.56
2023-02-01T22:01:20.176Z,102209.09
2023-02-01T22:03:47.062Z,102204.56
2023-02-01T22:06:25.481Z,102218.75
2023-02-01T22:08:52.306Z,102209.91
2023-02-01T22:11:19.283Z,102219.97
2023-02-01T22:13:45.875Z,102219.13
2023-02-01T22:16:13.604Z,102221.75
2023-02-01T22:18:40.206Z,102225.22
2023-02-01T22:21:06.810Z,102229.06
2023-02-01T22:23:33.374Z,102217.19
2023-02-01T22:26:01.550Z,102221.97
2023-02-01T22:28:32.318Z,102217.38
2023-02-01T22:31:05.010Z,102225.19
2023-02-01T22:33:33.449Z,102220.59
2023-02-01T22:36:01.137Z,102221.78
2023-02-01T22:38:30.979Z,102224.41
2023-02-01T22:40:58.882Z,102218.34
2023-02-01T22:43:25.991Z,102224.56
2023-02-01T22:45:53.133Z,102217.66
2023-02-01T22:48:19.935Z,102227.31
2023-02-01T22:50:47.047Z,102221.22
2023-02-01T22:53:13.715Z,102233.38
2023-02-01T22:55:42.280Z,102225.38
2023-02-01T22:58:09.032Z,102225.38
2023-02-01T23:00:35.720Z,102231.34
2023-02-01T23:03:03.267Z,102227.75
2023-02-01T23:05:29.835Z,102244.28
2023-02-01T23:07:56.456Z,102237.25
2023-02-01T23:10:23.281Z,102230.22
2023-02-01T23:12:50.088Z,102239.75
2023-02-01T23:15:17.489Z,102239.88
2023-02-01T23:17:44.820Z,102246.78
2023-02-01T23:20:15.431Z,102238.78
2023-02-01T23:22:46.586Z,102238.66
2023-02-01T23:25:15.257Z,102246.50
2023-02-01T23:27:57.611Z,102243.88
2023-02-01T23:30:24.207Z,102249.94
2023-02-01T23:32:50.758Z,102249.28
2023-02-01T23:35:18.306Z,102249.13
2023-02-01T23:37:44.894Z,102245.69
2023-02-01T23:40:12.432Z,102245.81
2023-02-01T23:42:39.091Z,102248.44
2023-02-01T23:45:06.239Z,102245.00
2023-02-01T23:47:32.775Z,102251.06
2023-02-01T23:49:59.310Z,102253.44
2023-02-01T23:52:25.966Z,102250.66
2023-02-01T23:54:52.486Z,102254.13
2023-02-01T23:57:19.153Z,102255.09
2023-02-01T23:59:45.981Z,102257.69
